Time;durP1;ratioP1;P1;durP2;ratioP2;P2;SDS_P1;SDS_P2;PMS_P1;PMS_P2;Temp;Humidity;BMP_temperature;BMP_pressure;BME280_temperature;BME280_humidity;BME280_pressure;Samples;Min_cycle;Max_cycle;Signal;HPM_P1;HPM_P2
2023/10/21 00:01:12;;;;;;;12.10;6.22;;;;;;;9.00;100.00;91648.69;5028765;28;20067;-61
2023/10/21 00:03:39;;;;;;;8.33;4.80;;;;;;;9.09;100.00;91654.13;5046683;28;20490;-59
2023/10/21 00:06:06;;;;;;;7.88;4.40;;;;;;;9.22;100.00;91647.72;5046744;28;20045;-60
2023/10/21 00:08:33;;;;;;;6.60;3.88;;;;;;;9.32;100.00;91649.94;5046043;28;20421;-59
2023/10/21 00:11:09;;;;;;;9.23;4.65;;;;;;;9.37;100.00;91643.06;5047243;28;20059;-59
2023/10/21 00:13:36;;;;;;;6.47;3.75;;;;;;;9.40;100.00;91645.66;5048886;28;20061;-59
2023/10/21 00:16:03;;;;;;;6.33;3.50;;;;;;;9.52;100.00;91659.59;5040368;28;20057;-60
2023/10/21 00:18:30;;;;;;;5.40;2.75;;;;;;;9.60;100.00;91666.25;5045933;28;20071;-58
2023/10/21 00:20:57;;;;;;;4.63;2.70;;;;;;;9.69;100.00;91666.19;5046995;28;20051;-60
2023/10/21 00:23:24;;;;;;;4.38;2.42;;;;;;;9.76;100.00;91674.06;5035004;28;20099;-60
2023/10/21 00:25:50;;;;;;;5.18;2.80;;;;;;;9.75;100.00;91686.22;5028271;28;20037;-60
2023/10/21 00:28:17;;;;;;;4.97;2.50;;;;;;;9.76;100.00;91693.25;5012781;28;20057;-61
2023/10/21 00:30:45;;;;;;;4.45;2.53;;;;;;;9.71;100.00;91699.34;5047000;28;20693;-60
2023/10/21 00:33:13;;;;;;;4.60;2.50;;;;;;;9.70;100.00;91708.78;5047573;28;20078;-60
2023/10/21 00:35:44;;;;;;;4.70;2.58;;;;;;;9.66;100.00;91704.69;5047360;28;20041;-61
2023/10/21 00:38:12;;;;;;;4.55;2.80;;;;;;;9.61;100.00;91722.53;5047408;28;20528;-61
2023/10/21 00:40:47;;;;;;;5.00;2.53;;;;;;;9.56;100.00;91732.13;5047429;28;20049;-61
2023/10/21 00:43:33;;;;;;;5.05;2.90;;;;;;;9.53;100.00;91732.28;5049777;28;20053;-61
2023/10/21 00:46:11;;;;;;;5.07;2.90;;;;;;;9.48;100.00;91741.91;5064974;28;20603;-60
2023/10/21 00:48:39;;;;;;;5.75;3.40;;;;;;;9.38;100.00;91741.16;5051213;28;20052;-59
2023/10/21 00:51:06;;;;;;;4.40;2.58;;;;;;;9.31;100.00;91757.16;5051475;28;20090;-61
2023/10/21 00:53:34;;;;;;;5.70;3.30;;;;;;;9.23;100.00;91742.28;5051192;28;20082;-59
2023/10/21 00:56:01;;;;;;;7.88;3.50;;;;;;;9.14;100.00;91754.75;5051645;28;20060;-61
2023/10/21 00:58:32;;;;;;;5.70;3.45;;;;;;;8.99;100.00;91751.13;5050789;28;20057;-60
2023/10/21 01:01:01;;;;;;;4.93;3.20;;;;;;;8.91;100.00;91763.59;5051712;28;20037;-60
2023/10/21 01:03:30;;;;;;;5.85;3.40;;;;;;;8.81;100.00;91762.84;5050885;28;20053;-59
2023/10/21 01:05:57;;;;;;;4.83;3.10;;;;;;;8.70;100.00;91776.97;5051281;28;20048;-59
2023/10/21 01:08:24;;;;;;;5.95;3.00;;;;;;;8.60;100.00;91776.22;5049451;28;20547;-60
2023/10/21 01:10:51;;;;;;;4.10;3.05;;;;;;;8.94;100.00;91781.84;5051264;28;20047;-59
2023/10/21 01:13:18;;;;;;;4.82;2.88;;;;;;;8.85;100.00;91779.09;5050948;28;20049;-59
2023/10/21 01:15:45;;;;;;;5.45;3.38;;;;;;;8.93;100.00;91788.53;5049113;28;21565;-60
2023/10/21 01:18:13;;;;;;;5.73;3.00;;;;;;;8.89;100.00;91780.47;5051013;28;20051;-60
2023/10/21 01:20:41;;;;;;;3.92;2.30;;;;;;;9.13;100.00;91788.03;5051061;28;20401;-59
2023/10/21 01:23:08;;;;;;;4.65;2.60;;;;;;;9.08;100.00;91783.94;5050803;28;20049;-60
2023/10/21 01:25:35;;;;;;;4.00;2.47;;;;;;;9.35;100.00;91785.88;5050529;28;20055;-59
2023/10/21 01:28:02;;;;;;;4.53;2.47;;;;;;;9.23;100.00;91777.84;5050221;28;20040;-60
2023/10/21 01:30:29;;;;;;;6.60;2.43;;;;;;;9.14;100.00;91803.25;5065950;28;20051;-61
2023/10/21 01:32:55;;;;;;;3.70;2.00;;;;;;;9.12;100.00;91800.97;5070495;28;20055;-60
2023/10/21 01:35:22;;;;;;;3.42;2.30;;;;;;;9.12;100.00;91797.47;5070049;28;20409;-60
2023/10/21 01:37:49;;;;;;;2.63;1.30;;;;;;;9.33;100.00;91802.00;5070636;28;20043;-60
2023/10/21 01:40:16;;;;;;;2.55;1.40;;;;;;;9.64;100.00;91790.06;5070449;28;20036;-60
2023/10/21 01:42:43;;;;;;;2.30;1.23;;;;;;;9.90;100.00;91786.91;5069867;28;20063;-59
2023/10/21 01:45:10;;;;;;;1.90;0.98;;;;;;;9.97;100.00;91798.28;5070447;28;20036;-60
2023/10/21 01:47:37;;;;;;;2.65;1.05;;;;;;;10.02;100.00;91805.16;5070063;28;20048;-60
2023/10/21 01:50:09;;;;;;;4.25;1.30;;;;;;;9.89;100.00;91808.06;5052852;28;20040;-61
2023/10/21 01:52:37;;;;;;;2.95;1.00;;;;;;;9.86;100.00;91798.06;5069848;28;20041;-61
2023/10/21 01:55:05;;;;;;;2.77;1.20;;;;;;;9.86;100.00;91800.00;5052046;28;20041;-60
2023/10/21 01:57:32;;;;;;;2.65;0.90;;;;;;;9.67;100.00;91813.78;5069478;28;20047;-60
2023/10/21 01:59:59;;;;;;;2.72;1.30;;;;;;;9.82;100.00;91805.69;5070420;28;20044;-59
2023/10/21 02:02:27;;;;;;;1.85;0.80;;;;;;;9.87;100.00;91807.78;5051662;28;20045;-59
2023/10/21 02:04:54;;;;;;;2.08;1.30;;;;;;;9.97;100.00;91803.78;5069980;28;20481;-59
2023/10/21 02:07:21;;;;;;;3.30;1.00;;;;;;;10.06;100.00;91811.22;5069524;28;20059;-59
2023/10/21 02:09:48;;;;;;;2.35;1.00;;;;;;;10.13;100.00;91808.13;5070361;28;20055;-59
2023/10/21 02:12:15;;;;;;;2.05;1.08;;;;;;;10.24;100.00;91807.63;5069839;28;20041;-60
2023/10/21 02:14:42;;;;;;;1.85;1.00;;;;;;;10.29;100.00;91808.97;5069522;28;20062;-60
2023/10/21 02:17:09;;;;;;;2.03;0.90;;;;;;;10.39;100.00;91808.47;5052319;28;20036;-59
2023/10/21 02:19:36;;;;;;;2.83;0.70;;;;;;;10.48;100.00;91806.91;5069285;28;20075;-59
2023/10/21 02:22:03;;;;;;;3.63;0.85;;;;;;;10.49;100.00;91811.91;5069884;28;20425;-61
2023/10/21 02:24:34;;;;;;;1.60;0.80;;;;;;;10.58;100.00;91806.38;5069125;28;20048;-59
2023/10/21 02:27:02;;;;;;;1.98;0.70;;;;;;;10.82;100.00;91818.56;5069764;28;20059;-60
2023/10/21 02:29:29;;;;;;;1.90;1.00;;;;;;;10.79;100.00;91820.28;5070236;28;20102;-59
2023/10/21 02:31:56;;;;;;;2.37;0.93;;;;;;;10.86;100.00;91827.38;5069763;28;20051;-59
2023/10/21 02:34:23;;;;;;;1.90;0.90;;;;;;;10.82;100.00;91846.75;5068730;28;20500;-60
2023/10/21 02:36:49;;;;;;;1.95;0.95;;;;;;;10.77;100.00;91845.44;5069670;28;20040;-59
2023/10/21 02:39:17;;;;;;;1.67;0.60;;;;;;;10.77;100.00;91839.94;5069362;28;20056;-61
2023/10/21 02:41:44;;;;;;;1.70;0.80;;;;;;;10.83;100.00;91853.78;5088797;28;20478;-60
2023/10/21 02:44:11;;;;;;;1.60;0.70;;;;;;;10.86;100.00;91850.09;5071699;28;20101;-63
2023/10/21 02:46:38;;;;;;;1.67;0.80;;;;;;;10.80;100.00;91849.22;5089314;28;20511;-59
2023/10/21 02:49:05;;;;;;;1.60;0.80;;;;;;;10.74;100.00;91856.56;5089643;28;20044;-59
2023/10/21 02:51:31;;;;;;;2.53;0.70;;;;;;;11.00;100.00;91856.84;5088783;28;20825;-60
2023/10/21 02:53:58;;;;;;;1.90;0.80;;;;;;;10.94;100.00;91856.72;5089317;28;20050;-59
2023/10/21 02:56:25;;;;;;;1.87;0.90;;;;;;;10.96;100.00;91854.28;5088702;28;20040;-59
2023/10/21 02:58:52;;;;;;;2.90;1.05;;;;;;;10.84;100.00;91869.00;5071494;28;20048;-59
2023/10/21 03:01:20;;;;;;;2.17;0.90;;;;;;;10.87;100.00;91870.06;5088313;28;20044;-59
2023/10/21 03:03:48;;;;;;;1.88;0.70;;;;;;;10.76;100.00;91871.31;5071587;28;20036;-59
2023/10/21 03:06:19;;;;;;;1.60;0.73;;;;;;;10.87;100.00;91875.56;5087722;28;20373;-59
2023/10/21 03:08:46;;;;;;;2.00;0.70;;;;;;;10.90;100.00;91877.34;5088322;28;20625;-61
2023/10/21 03:11:14;;;;;;;2.15;0.80;;;;;;;10.91;100.00;91876.13;5089047;28;20668;-64
2023/10/21 03:13:41;;;;;;;1.60;0.80;;;;;;;11.00;100.00;91876.81;5053953;28;20079;-60
2023/10/21 03:16:10;;;;;;;1.80;0.70;;;;;;;11.09;100.00;91884.25;5071261;28;20040;-61
2023/10/21 03:18:38;;;;;;;1.70;0.70;;;;;;;11.13;100.00;91886.81;5087206;28;20587;-61
2023/10/21 03:21:05;;;;;;;1.60;0.60;;;;;;;11.10;100.00;91904.22;5088993;28;20119;-60
2023/10/21 03:23:32;;;;;;;2.28;1.10;;;;;;;10.97;100.00;91899.72;5087887;28;20058;-61
2023/10/21 03:26:03;;;;;;;2.55;1.17;;;;;;;10.94;100.00;91905.38;5088923;28;20048;-61
2023/10/21 03:28:31;;;;;;;2.70;0.82;;;;;;;10.90;100.00;91915.78;5083556;28;20043;-61
2023/10/21 03:31:04;;;;;;;2.03;0.80;;;;;;;10.79;100.00;91922.53;5068770;28;20047;-61
2023/10/21 03:33:32;;;;;;;1.60;0.70;;;;;;;10.76;100.00;91933.69;5067812;28;20045;-61
2023/10/21 03:36:01;;;;;;;2.20;1.20;;;;;;;10.71;100.00;91924.09;5068386;28;20044;-63
2023/10/21 03:38:29;;;;;;;2.60;1.33;;;;;;;10.63;100.00;91935.91;5067806;28;20435;-61
2023/10/21 03:41:02;;;;;;;2.08;1.30;;;;;;;10.68;100.00;91933.25;5050753;28;20405;-61
2023/10/21 03:43:28;;;;;;;2.60;1.10;;;;;;;10.65;100.00;91955.38;5067619;28;20493;-62
2023/10/21 03:45:55;;;;;;;2.27;1.00;;;;;;;10.62;100.00;91959.78;5067391;28;20410;-61
2023/10/21 03:48:23;;;;;;;2.00;1.20;;;;;;;10.64;100.00;91962.84;5068293;28;20063;-61
2023/10/21 03:50:50;;;;;;;3.25;1.50;;;;;;;10.61;100.00;91968.50;5067602;28;20037;-62
2023/10/21 03:53:17;;;;;;;1.90;0.93;;;;;;;10.49;100.00;91979.22;5067724;28;20536;-65
2023/10/21 03:55:44;;;;;;;2.50;1.00;;;;;;;10.49;100.00;91973.72;5066983;28;20423;-61
2023/10/21 03:58:11;;;;;;;1.90;0.90;;;;;;;10.51;100.00;91995.97;5068089;28;20055;-61
2023/10/21 04:00:39;;;;;;;3.05;0.80;;;;;;;10.68;100.00;91992.84;5067139;28;20128;-61
2023/10/21 04:03:07;;;;;;;2.13;0.80;;;;;;;10.75;100.00;91987.03;5068100;28;20082;-61
2023/10/21 04:05:35;;;;;;;1.60;0.70;;;;;;;10.79;100.00;92001.34;5067056;28;20055;-61
2023/10/21 04:08:04;;;;;;;1.70;0.80;;;;;;;10.79;100.00;91999.38;5068289;28;20047;-63
2023/10/21 04:10:32;;;;;;;1.77;0.87;;;;;;;10.90;100.00;92004.34;5067212;28;20052;-58
2023/10/21 04:13:01;;;;;;;1.60;0.75;;;;;;;11.00;100.00;92005.81;5068237;28;20039;-59
2023/10/21 04:15:28;;;;;;;1.77;0.80;;;;;;;10.93;100.00;92017.16;5067023;28;20521;-59
2023/10/21 04:17:55;;;;;;;2.75;1.33;;;;;;;10.95;100.00;92014.69;5067777;28;20040;-58
2023/10/21 04:20:22;;;;;;;2.53;1.20;;;;;;;10.90;100.00;92009.06;5067297;28;20058;-59
2023/10/21 04:22:49;;;;;;;2.50;0.97;;;;;;;11.00;100.00;92021.53;5068170;28;20041;-60
2023/10/21 04:25:16;;;;;;;1.60;0.70;;;;;;;11.02;100.00;92015.56;5067980;28;20095;-60
2023/10/21 04:27:44;;;;;;;1.98;1.00;;;;;;;11.04;100.00;92016.63;5049831;28;20048;-59
2023/10/21 04:30:11;;;;;;;2.20;0.80;;;;;;;11.04;100.00;92027.59;5068042;28;20101;-60
2023/10/21 04:32:39;;;;;;;1.80;0.80;;;;;;;11.06;100.00;92029.91;5049342;28;20482;-59
2023/10/21 04:35:06;;;;;;;1.90;0.70;;;;;;;10.99;100.00;92026.25;5067674;28;20036;-59
2023/10/21 04:37:32;;;;;;;1.73;0.68;;;;;;;11.01;100.00;92045.03;5066931;28;20101;-59
2023/10/21 04:39:59;;;;;;;2.25;0.70;;;;;;;11.03;100.00;92036.28;5067778;28;20055;-59
2023/10/21 04:42:26;;;;;;;1.73;0.70;;;;;;;11.05;100.00;92033.88;5066974;28;20044;-59
2023/10/21 04:44:53;;;;;;;1.95;0.90;;;;;;;11.11;100.00;92043.75;5049949;28;20063;-59
2023/10/21 04:47:20;;;;;;;1.73;0.70;;;;;;;11.00;100.00;92041.50;5066985;28;20052;-59
2023/10/21 04:49:47;;;;;;;1.70;0.70;;;;;;;11.12;100.00;92041.75;5067695;28;20036;-60
2023/10/21 04:52:17;;;;;;;2.75;0.80;;;;;;;11.00;100.00;92051.72;5067636;28;20046;-59
2023/10/21 04:54:44;;;;;;;1.60;0.60;;;;;;;11.03;100.00;92053.56;5054607;28;20864;-60
2023/10/21 04:57:11;;;;;;;1.60;0.70;;;;;;;11.05;100.00;92053.09;5046327;28;20509;-58
2023/10/21 04:59:40;;;;;;;1.40;0.63;;;;;;;11.07;100.00;92059.63;5047056;28;20059;-59
2023/10/21 05:02:07;;;;;;;2.05;0.77;;;;;;;11.07;100.00;92064.38;5045782;28;20048;-59
2023/10/21 05:04:35;;;;;;;1.60;0.90;;;;;;;11.00;100.00;92066.19;5047248;28;20060;-59
2023/10/21 05:07:02;;;;;;;1.73;0.90;;;;;;;10.97;100.00;92069.13;5047934;28;20037;-59
2023/10/21 05:09:30;;;;;;;2.20;0.90;;;;;;;10.96;100.00;92082.06;5046628;28;20057;-61
2023/10/21 05:11:57;;;;;;;3.30;0.73;;;;;;;10.92;100.00;92081.47;5047615;28;20061;-59
2023/10/21 05:14:25;;;;;;;2.00;0.90;;;;;;;10.88;100.00;92077.38;5046540;28;20703;-60
2023/10/21 05:16:52;;;;;;;1.90;0.90;;;;;;;10.88;100.00;92085.63;5047278;28;20096;-60
2023/10/21 05:19:18;;;;;;;1.60;0.80;;;;;;;10.83;100.00;92076.03;5047259;28;20086;-60
2023/10/21 05:21:48;;;;;;;3.78;0.90;;;;;;;10.79;100.00;92094.63;5037688;28;20052;-61
2023/10/21 05:24:15;;;;;;;2.47;0.60;;;;;;;10.77;100.00;92091.59;5047248;28;20051;-63
2023/10/21 05:26:42;;;;;;;1.77;0.70;;;;;;;10.78;100.00;92098.59;5046325;28;20105;-61
2023/10/21 05:29:08;;;;;;;1.42;0.63;;;;;;;10.79;100.00;92089.16;5047570;28;20060;-62
2023/10/21 05:31:35;;;;;;;1.67;0.90;;;;;;;10.73;100.00;92091.00;5050206;28;20071;-61
2023/10/21 05:34:02;;;;;;;2.55;0.90;;;;;;;10.73;100.00;92099.97;5050695;28;20056;-60
2023/10/21 05:36:29;;;;;;;2.10;0.80;;;;;;;10.71;100.00;92102.44;5050247;28;20047;-59
2023/10/21 05:38:56;;;;;;;1.70;0.70;;;;;;;10.65;100.00;92101.53;5050820;28;20041;-59
2023/10/21 05:41:23;;;;;;;1.70;0.70;;;;;;;10.66;100.00;92113.25;5049667;28;20056;-60
2023/10/21 05:43:50;;;;;;;1.90;0.80;;;;;;;10.74;100.00;92111.72;5050349;28;20041;-60
2023/10/21 05:46:18;;;;;;;2.00;1.00;;;;;;;10.77;100.00;92132.75;5050520;28;20426;-61
2023/10/21 05:48:45;;;;;;;10.70;4.70;;;;;;;10.67;100.00;92134.75;5040194;28;20704;-62
2023/10/21 05:51:12;;;;;;;2.42;0.80;;;;;;;10.67;100.00;92137.50;5050652;28;20045;-61
2023/10/21 05:53:39;;;;;;;2.60;1.50;;;;;;;10.69;100.00;92140.53;5049832;28;20049;-61
2023/10/21 05:56:06;;;;;;;3.20;1.48;;;;;;;10.67;100.00;92147.72;5050201;28;20049;-61
2023/10/21 05:58:33;;;;;;;3.80;1.40;;;;;;;10.73;100.00;92154.09;5049705;28;20661;-60
2023/10/21 06:01:08;;;;;;;3.40;1.13;;;;;;;10.64;100.00;92159.59;5050328;28;20041;-61
2023/10/21 06:03:36;;;;;;;2.78;1.08;;;;;;;10.72;100.00;92166.28;5049632;28;20041;-60
2023/10/21 06:06:03;;;;;;;1.65;0.90;;;;;;;10.66;100.00;92163.38;5050118;28;20368;-61
2023/10/21 06:08:30;;;;;;;9.80;4.90;;;;;;;10.59;100.00;92171.94;5049332;28;20047;-61
2023/10/21 06:10:58;;;;;;;2.70;1.10;;;;;;;10.55;100.00;92174.09;5043250;28;20067;-61
2023/10/21 06:13:24;;;;;;;6.57;3.67;;;;;;;10.47;100.00;92175.59;5051677;28;20049;-62
2023/10/21 06:15:52;;;;;;;3.50;1.90;;;;;;;10.32;100.00;92173.47;5036759;28;20043;-61
2023/10/21 06:18:20;;;;;;;12.23;8.23;;;;;;;10.30;100.00;92189.63;5031245;28;20052;-60
2023/10/21 06:20:51;;;;;;;78.63;45.95;;;;;;;10.21;100.00;92192.31;5050007;28;20486;-62
2023/10/21 06:23:18;;;;;;;60.92;39.17;;;;;;;10.16;100.00;92203.88;5066455;28;20477;-61
2023/10/21 06:25:45;;;;;;;12.33;9.93;;;;;;;10.13;100.00;92202.06;5068494;28;21468;-61
2023/10/21 06:28:15;;;;;;;7.22;4.40;;;;;;;10.13;100.00;92219.25;5051606;28;20049;-61
2023/10/21 06:30:42;;;;;;;5.18;3.70;;;;;;;10.11;100.00;92223.69;5056726;28;20037;-60
2023/10/21 06:33:09;;;;;;;4.75;2.85;;;;;;;9.98;100.00;92226.56;5049246;28;20063;-64
2023/10/21 06:35:38;;;;;;;4.47;2.20;;;;;;;9.99;100.00;92223.34;5049220;28;20088;-61
2023/10/21 06:38:07;;;;;;;2.80;1.70;;;;;;;9.95;100.00;92228.19;5049862;28;20056;-59
2023/10/21 06:40:35;;;;;;;3.10;1.50;;;;;;;9.73;100.00;92243.97;5048838;28;20044;-60
2023/10/21 06:43:21;;;;;;;2.70;1.70;;;;;;;9.77;100.00;92253.56;5049254;28;20044;-60
2023/10/21 06:45:47;;;;;;;4.38;1.90;;;;;;;9.87;100.00;92248.88;5049572;28;20048;-62
2023/10/21 06:48:14;;;;;;;3.88;2.50;;;;;;;9.79;100.00;92244.91;5047370;28;20037;-60
2023/10/21 06:50:41;;;;;;;3.00;1.90;;;;;;;9.81;100.00;92253.44;5044988;28;20041;-60
2023/10/21 06:53:08;;;;;;;3.67;2.00;;;;;;;9.76;100.00;92262.25;5058224;28;20067;-60
2023/10/21 06:55:44;;;;;;;4.70;2.58;;;;;;;9.74;100.00;92270.16;5057213;28;20426;-60
2023/10/21 06:58:11;;;;;;;6.60;4.10;;;;;;;9.89;100.00;92278.56;5039740;28;20407;-60
2023/10/21 07:00:39;;;;;;;4.35;2.00;;;;;;;10.69;100.00;92274.22;5042035;28;20067;-67
2023/10/21 07:03:06;;;;;;;2.97;1.23;;;;;;;12.62;100.00;92269.41;5061009;28;20481;-71
2023/10/21 07:05:35;;;;;;;3.28;1.88;;;;;;;16.31;100.00;92265.25;5058026;28;20052;-70
2023/10/21 07:08:02;;;;;;;4.32;1.70;;;;;;;18.68;100.00;92267.91;5057428;28;20123;-70
2023/10/21 07:10:30;;;;;;;3.03;1.40;;;;;;;19.87;88.47;92266.19;5040731;28;20061;-69
2023/10/21 07:12:58;;;;;;;3.47;1.90;;;;;;;19.64;81.02;92275.91;5061097;28;20073;-69
2023/10/21 07:15:28;;;;;;;3.20;1.87;;;;;;;20.34;71.66;92280.03;5039715;28;20428;-68
2023/10/21 07:17:57;;;;;;;3.40;1.40;;;;;;;20.87;78.85;92279.81;5027750;28;20348;-64
2023/10/21 07:20:26;;;;;;;2.40;1.30;;;;;;;22.72;61.69;92281.44;5056107;28;20060;-66
2023/10/21 07:22:53;;;;;;;3.38;1.70;;;;;;;17.26;85.49;92293.97;5060281;28;20044;-68
2023/10/21 07:25:20;;;;;;;2.95;1.20;;;;;;;16.72;97.91;92305.78;5036371;28;20573;-65
2023/10/21 07:27:47;;;;;;;2.30;1.00;;;;;;;19.28;87.34;92306.44;5060367;28;20040;-72
2023/10/21 07:30:15;;;;;;;1.80;0.90;;;;;;;21.98;66.18;92314.56;5060163;28;20036;-71
2023/10/21 07:32:44;;;;;;;3.42;0.98;;;;;;;23.44;59.65;92311.47;5051897;28;20075;-69
2023/10/21 07:35:11;;;;;;;2.03;0.80;;;;;;;23.20;54.91;92317.25;5042561;28;20051;-70
2023/10/21 07:37:37;;;;;;;2.25;0.63;;;;;;;22.13;59.06;92323.25;5054538;28;20715;-66
2023/10/21 07:40:06;;;;;;;2.53;0.70;;;;;;;20.04;69.83;92326.56;5043308;28;20045;-65
2023/10/21 07:42:33;;;;;;;2.55;1.05;;;;;;;18.33;82.42;92339.41;5058142;28;20067;-68
2023/10/21 07:45:00;;;;;;;3.10;1.77;;;;;;;18.38;86.30;92342.69;5059506;28;20047;-65
2023/10/21 07:47:27;;;;;;;3.30;1.55;;;;;;;16.94;98.40;92344.75;5058627;28;20064;-68
2023/10/21 07:49:54;;;;;;;2.67;1.35;;;;;;;16.58;100.00;92349.00;5056510;28;20041;-61
2023/10/21 07:52:22;;;;;;;2.50;1.23;;;;;;;16.22;100.00;92356.00;5055960;28;20041;-66
2023/10/21 07:54:49;;;;;;;2.67;1.25;;;;;;;17.37;98.89;92343.94;5042345;28;20041;-67
2023/10/21 07:57:16;;;;;;;3.15;1.20;;;;;;;16.93;100.00;92348.00;5060047;28;20052;-65
2023/10/21 07:59:44;;;;;;;2.95;1.00;;;;;;;16.89;100.00;92353.00;5056441;28;20051;-68
2023/10/21 08:02:11;;;;;;;2.88;1.20;;;;;;;15.41;100.00;92358.44;5056555;28;20480;-65
2023/10/21 08:04:37;;;;;;;2.00;0.90;;;;;;;15.02;100.00;92361.47;5065533;28;20402;-64
2023/10/21 08:07:05;;;;;;;3.45;0.93;;;;;;;16.12;100.00;92372.78;5053205;28;20049;-62
2023/10/21 08:09:31;;;;;;;2.28;1.00;;;;;;;16.63;100.00;92369.69;5046951;28;20053;-63
2023/10/21 08:11:59;;;;;;;4.00;1.42;;;;;;;15.76;100.00;92377.72;5056216;28;20490;-63
2023/10/21 08:14:27;;;;;;;2.30;1.30;;;;;;;15.03;100.00;92393.41;5055576;28;20049;-63
2023/10/21 08:16:54;;;;;;;2.90;1.40;;;;;;;14.82;100.00;92380.78;5056595;28;20029;-62
2023/10/21 08:19:22;;;;;;;2.67;0.60;;;;;;;13.92;100.00;92383.63;5038387;28;20405;-62
2023/10/21 08:21:49;;;;;;;2.90;1.00;;;;;;;13.56;100.00;92384.69;5055695;28;20048;-61
2023/10/21 08:24:16;;;;;;;2.30;1.17;;;;;;;13.21;100.00;92401.00;5056011;28;20063;-62
2023/10/21 08:26:43;;;;;;;2.72;1.10;;;;;;;13.47;100.00;92399.31;5059239;28;20529;-62
2023/10/21 08:29:10;;;;;;;2.13;1.10;;;;;;;13.88;100.00;92399.56;5052789;28;20049;-62
2023/10/21 08:31:37;;;;;;;2.20;0.90;;;;;;;14.62;100.00;92396.06;5049666;28;20045;-62
2023/10/21 08:34:05;;;;;;;2.08;0.93;;;;;;;14.10;100.00;92412.22;5059564;28;20058;-63
2023/10/21 08:36:32;;;;;;;2.10;1.00;;;;;;;14.16;100.00;92419.38;5057457;28;20081;-61
2023/10/21 08:38:59;;;;;;;3.78;1.60;;;;;;;13.88;100.00;92426.38;5056273;28;20045;-62
2023/10/21 08:41:34;;;;;;;2.20;1.10;;;;;;;13.90;100.00;92432.94;5054626;28;20539;-61
2023/10/21 08:44:01;;;;;;;2.33;1.10;;;;;;;13.48;100.00;92433.91;5053765;28;20389;-61
2023/10/21 08:46:30;;;;;;;2.17;1.20;;;;;;;13.40;100.00;92441.00;5055245;28;20045;-62
2023/10/21 08:48:58;;;;;;;2.22;1.00;;;;;;;13.46;100.00;92441.88;5055043;28;20041;-62
2023/10/21 08:51:26;;;;;;;2.50;1.02;;;;;;;13.23;100.00;92437.13;5055786;28;20045;-60
2023/10/21 08:53:57;;;;;;;2.87;1.00;;;;;;;13.50;100.00;92431.44;5058260;28;20097;-60
2023/10/21 08:56:23;;;;;;;2.15;1.00;;;;;;;13.53;100.00;92430.50;5057492;28;20044;-60
2023/10/21 08:58:51;;;;;;;2.80;1.05;;;;;;;13.56;100.00;92432.31;5055377;28;20416;-61
2023/10/21 09:01:17;;;;;;;2.47;0.80;;;;;;;14.22;100.00;92419.47;5055605;28;20053;-60
2023/10/21 09:03:44;;;;;;;2.80;1.20;;;;;;;14.23;100.00;92425.75;5057555;28;20040;-61
2023/10/21 09:06:11;;;;;;;1.70;0.70;;;;;;;14.32;100.00;92425.66;5062437;28;20136;-61
2023/10/21 09:08:40;;;;;;;2.35;0.95;;;;;;;14.31;100.00;92429.66;5059088;28;20488;-60
2023/10/21 09:11:10;;;;;;;2.33;1.00;;;;;;;14.81;100.00;92424.22;5059222;28;20048;-60
2023/10/21 09:13:38;;;;;;;2.58;0.80;;;;;;;16.05;100.00;92423.03;5060726;28;20047;-60
2023/10/21 09:16:19;;;;;;;2.65;0.90;;;;;;;16.49;97.60;92427.47;5062163;28;20075;-60
2023/10/21 09:19:03;;;;;;;3.73;2.27;;;;;;;16.83;93.80;92425.00;5049732;28;20637;-60
2023/10/21 09:21:32;;;;;;;2.30;0.80;;;;;;;16.88;90.98;92432.63;5052329;28;20049;-61
2023/10/21 09:24:11;;;;;;;2.33;0.93;;;;;;;16.22;94.74;92431.50;5062031;28;20045;-61
2023/10/21 09:26:40;;;;;;;2.13;1.00;;;;;;;15.71;96.90;92439.22;5059027;28;20052;-61
2023/10/21 09:29:11;;;;;;;1.92;0.65;;;;;;;15.66;96.37;92448.22;5058670;28;20041;-61
2023/10/21 09:31:51;;;;;;;2.07;0.60;;;;;;;15.74;95.22;92446.59;5057960;28;20050;-60
2023/10/21 09:34:33;;;;;;;1.88;0.70;;;;;;;15.73;96.12;92447.06;5058747;28;20047;-60
2023/10/21 09:37:05;;;;;;;3.53;0.95;;;;;;;15.58;97.51;92445.09;5068569;28;21578;-60
2023/10/21 09:39:43;;;;;;;2.10;0.70;;;;;;;16.37;94.54;92437.69;5069958;28;20046;-60
2023/10/21 09:42:10;;;;;;;2.25;0.70;;;;;;;15.34;95.37;92444.53;5069132;28;20037;-60
2023/10/21 09:44:38;;;;;;;1.97;0.70;;;;;;;15.69;94.07;92438.94;5069313;28;20086;-60
2023/10/21 09:47:06;;;;;;;1.95;0.70;;;;;;;15.93;93.04;92438.00;5070569;28;20060;-60
2023/10/21 09:49:40;;;;;;;1.65;0.80;;;;;;;16.68;91.21;92455.59;5069969;28;20387;-61
2023/10/21 09:52:11;;;;;;;2.85;0.80;;;;;;;16.23;91.51;92457.94;5052266;28;20049;-60
2023/10/21 09:54:47;;;;;;;1.83;0.70;;;;;;;16.79;87.67;92463.22;5069413;28;20047;-61
2023/10/21 09:57:15;;;;;;;2.50;1.10;;;;;;;16.52;86.45;92462.50;5057630;28;20051;-61
2023/10/21 09:59:44;;;;;;;2.80;0.98;;;;;;;16.73;86.47;92468.72;5069359;28;20052;-61
2023/10/21 10:02:14;;;;;;;2.42;1.10;;;;;;;17.96;81.32;92470.78;5052843;28;20504;-61
2023/10/21 10:04:42;;;;;;;3.50;1.60;;;;;;;17.86;78.88;92472.28;5068860;28;20046;-61
2023/10/21 10:07:10;;;;;;;2.10;0.80;;;;;;;19.89;73.25;92472.44;5070171;28;20044;-61
2023/10/21 10:09:55;;;;;;;1.70;0.57;;;;;;;20.13;65.62;92469.06;5068634;28;20427;-62
2023/10/21 10:12:28;;;;;;;1.98;0.65;;;;;;;18.42;71.51;92473.72;5069471;28;20040;-61
2023/10/21 10:14:55;;;;;;;1.90;0.73;;;;;;;16.37;81.64;92486.75;5068785;28;20053;-62
2023/10/21 10:17:48;;;;;;;2.70;1.20;;;;;;;16.05;86.18;92488.69;5069002;28;20037;-61
2023/10/21 10:20:22;;;;;;;2.03;0.68;;;;;;;16.54;83.59;92484.94;5052218;28;20036;-61
2023/10/21 10:22:56;;;;;;;2.67;0.70;;;;;;;16.16;85.20;92486.81;5037993;28;20045;-61
2023/10/21 10:25:30;;;;;;;2.45;0.77;;;;;;;16.31;86.85;92489.47;5068900;28;20419;-62
2023/10/21 10:27:59;;;;;;;2.70;0.75;;;;;;;17.69;81.41;92494.38;5069505;28;20259;-60
2023/10/21 10:30:32;;;;;;;2.00;0.70;;;;;;;19.47;70.72;92467.97;5065445;28;20048;-64
2023/10/21 10:33:06;;;;;;;1.83;0.50;;;;;;;20.07;67.91;92462.75;5069568;28;20067;-62
2023/10/21 10:35:40;;;;;;;2.47;0.70;;;;;;;18.14;72.93;92472.38;5068748;28;20083;-61
2023/10/21 10:38:25;;;;;;;2.13;0.80;;;;;;;18.09;74.37;92462.03;5069277;28;20058;-62
2023/10/21 10:41:07;;;;;;;2.08;0.70;;;;;;;18.88;73.83;92458.66;5044238;28;20266;-61
2023/10/21 10:43:37;;;;;;;1.85;0.68;;;;;;;17.40;77.29;92464.94;5055045;28;20395;-61
2023/10/21 10:46:07;;;;;;;2.45;0.70;;;;;;;17.85;76.79;92479.09;5055517;28;20066;-60
2023/10/21 10:48:34;;;;;;;1.80;0.73;;;;;;;17.53;77.37;92473.59;5058030;28;20416;-60
2023/10/21 10:51:10;;;;;;;2.40;0.70;;;;;;;17.05;78.05;92477.06;5057137;28;20056;-60
2023/10/21 10:53:37;;;;;;;3.53;1.60;;;;;;;16.82;77.52;92469.81;5058972;28;20049;-61
2023/10/21 10:56:07;;;;;;;2.47;0.85;;;;;;;17.00;77.15;92455.59;5060674;28;20037;-61
2023/10/21 10:58:34;;;;;;;1.88;0.80;;;;;;;16.40;80.81;92465.63;5057948;28;20046;-60
2023/10/21 11:01:01;;;;;;;2.17;0.83;;;;;;;16.74;81.29;92461.94;5056824;28;20236;-60
2023/10/21 11:03:33;;;;;;;3.03;1.00;;;;;;;19.13;74.56;92465.97;5057916;28;20094;-62
2023/10/21 11:06:00;;;;;;;2.83;1.20;;;;;;;21.95;61.88;92463.63;5060018;28;20124;-61
2023/10/21 11:08:30;;;;;;;2.05;0.70;;;;;;;21.89;57.67;92463.72;5051575;28;20051;-61
2023/10/21 11:11:06;;;;;;;2.13;0.90;;;;;;;20.24;62.77;92462.69;5059958;28;20055;-60
2023/10/21 11:13:33;;;;;;;1.63;0.70;;;;;;;20.78;60.17;92471.78;5058469;28;20041;-60
2023/10/21 11:16:04;;;;;;;2.08;1.00;;;;;;;20.02;62.86;92482.25;5045203;28;20113;-60
2023/10/21 11:18:32;;;;;;;2.33;1.10;;;;;;;19.86;63.48;92473.47;5063369;28;20044;-60
2023/10/21 11:20:59;;;;;;;1.65;0.60;;;;;;;18.56;66.13;92483.84;5059956;28;20045;-60
2023/10/21 11:23:28;;;;;;;2.25;0.70;;;;;;;18.31;68.88;92483.56;5058530;28;20044;-63
2023/10/21 11:25:59;;;;;;;1.90;0.60;;;;;;;17.60;71.88;92479.94;5056620;28;20049;-62
2023/10/21 11:28:27;;;;;;;2.33;0.95;;;;;;;18.04;72.12;92484.97;5055231;28;20037;-62
2023/10/21 11:30:56;;;;;;;2.40;0.90;;;;;;;17.85;73.08;92484.66;5048012;28;20123;-62
2023/10/21 11:33:22;;;;;;;2.28;0.88;;;;;;;17.75;72.43;92483.31;5055964;28;20049;-62
2023/10/21 11:35:52;;;;;;;2.10;0.90;;;;;;;17.80;71.58;92479.03;5059805;28;20056;-62